Time;durP1;ratioP1;P1;durP2;ratioP2;P2;SDS_P1;SDS_P2;PMS_P1;PMS_P2;Temp;Humidity;BMP_temperature;BMP_pressure;BME280_temperature;BME280_humidity;BME280_pressure;Samples;Min_cycle;Max_cycle;Signal;HPM_P1;HPM_P2
2023/08/13 00:01:18;;;;;;;243.90;144.15;;;;;;;13.22;100.00;100269.16;5074126;28;20367;-90
2023/08/13 00:03:44;;;;;;;248.77;146.57;;;;;;;13.40;100.00;100296.44;5058342;28;20059;-89
2023/08/13 00:06:10;;;;;;;242.90;143.82;;;;;;;13.19;100.00;100271.22;5043134;28;20405;-88
2023/08/13 00:08:36;;;;;;;235.73;140.52;;;;;;;13.09;100.00;100261.84;5057510;28;20043;-87
2023/08/13 00:11:08;;;;;;;245.98;144.60;;;;;;;13.20;100.00;100282.84;5041454;28;20070;-90
2023/08/13 00:13:34;;;;;;;237.68;142.18;;;;;;;13.28;100.00;100301.59;5059529;28;20071;-88
2023/08/13 00:16:00;;;;;;;255.65;150.25;;;;;;;13.22;100.00;100285.34;5041081;28;20446;-90
2023/08/13 00:18:27;;;;;;;246.48;146.32;;;;;;;13.09;100.00;100276.19;5038909;28;20071;-88
2023/08/13 00:20:53;;;;;;;250.10;148.45;;;;;;;13.00;100.00;100274.72;5052747;28;20036;-87
2023/08/13 00:23:19;;;;;;;256.95;151.07;;;;;;;13.06;100.00;100295.50;5054307;28;20387;-88
2023/08/13 00:25:44;;;;;;;244.57;145.27;;;;;;;12.74;100.00;100253.88;5074697;28;20436;-88
2023/08/13 00:28:10;;;;;;;244.95;145.30;;;;;;;12.74;100.00;100268.19;5054565;28;20040;-89
2023/08/13 00:30:36;;;;;;;243.95;144.65;;;;;;;12.82;100.00;100285.25;5041657;28;20098;-89
2023/08/13 00:33:01;;;;;;;241.05;144.00;;;;;;;12.55;100.00;100258.16;5038412;28;20037;-88
2023/08/13 00:35:27;;;;;;;261.98;153.23;;;;;;;12.79;100.00;100296.44;5054977;28;20037;-89
2023/08/13 00:37:55;;;;;;;258.80;152.80;;;;;;;12.78;100.00;100290.22;5040686;28;20032;-87
2023/08/13 00:40:21;;;;;;;246.77;146.95;;;;;;;12.83;100.00;100295.81;5037704;28;20033;-87
2023/08/13 00:42:46;;;;;;;250.52;148.88;;;;;;;12.88;100.00;100301.44;5038596;28;20044;-88
2023/08/13 00:45:12;;;;;;;264.17;155.18;;;;;;;12.94;100.00;100300.66;5052668;28;20029;-88
2023/08/13 00:47:37;;;;;;;270.95;158.68;;;;;;;12.94;100.00;100289.03;5053281;28;20032;-87
2023/08/13 00:50:04;;;;;;;262.25;154.07;;;;;;;13.01;100.00;100300.66;5052495;28;20087;-88
2023/08/13 00:52:30;;;;;;;265.40;155.27;;;;;;;13.00;100.00;100296.31;5037807;28;20372;-87
2023/08/13 00:54:56;;;;;;;270.60;157.82;;;;;;;12.92;100.00;100289.22;5073449;28;20466;-89
2023/08/13 00:57:22;;;;;;;261.85;153.88;;;;;;;12.89;100.00;100302.31;5040372;28;20040;-87
2023/08/13 00:59:50;;;;;;;261.73;153.63;;;;;;;12.66;100.00;100273.78;5073465;28;20123;-87
2023/08/13 01:02:16;;;;;;;262.65;154.50;;;;;;;12.87;100.00;100293.56;5057135;28;20064;-88
2023/08/13 01:04:42;;;;;;;255.23;150.90;;;;;;;12.87;100.00;100290.88;5057155;28;20051;-88
2023/08/13 01:07:30;;;;;;;262.23;154.20;;;;;;;12.89;100.00;100281.53;5039286;28;20395;-88
2023/08/13 01:10:14;;;;;;;266.80;157.10;;;;;;;12.94;100.00;100291.72;5036135;28;20127;-87
2023/08/13 01:12:46;;;;;;;269.75;158.30;;;;;;;12.96;100.00;100290.47;5053498;28;20463;-86
2023/08/13 01:15:28;;;;;;;267.23;157.00;;;;;;;12.95;100.00;100275.31;5161144;27;20407;-88
2023/08/13 01:17:55;;;;;;;261.85;154.35;;;;;;;13.03;100.00;100289.69;5076436;28;20534;-85
2023/08/13 01:20:34;;;;;;;273.95;160.07;;;;;;;13.08;100.00;100285.31;5061049;28;20059;-84
2023/08/13 01:23:00;;;;;;;279.52;162.93;;;;;;;12.91;100.00;100251.63;5084903;28;20114;-85
2023/08/13 01:25:26;;;;;;;269.80;157.45;;;;;;;13.12;100.00;100274.94;5091251;28;20127;-86
2023/08/13 01:28:03;;;;;;;285.73;165.25;;;;;;;13.08;100.00;100261.03;5089719;28;20059;-88
2023/08/13 01:30:45;;;;;;;264.33;154.02;;;;;;;13.15;100.00;100280.78;5116793;28;20478;-88
2023/08/13 01:33:26;;;;;;;271.67;158.37;;;;;;;13.16;100.00;100271.63;5067546;28;20067;-85
2023/08/13 01:35:53;;;;;;;286.40;166.35;;;;;;;13.17;100.00;100288.66;5097106;28;20126;-87
2023/08/13 01:38:18;;;;;;;278.45;162.73;;;;;;;13.13;100.00;100277.44;5093014;28;20047;-86
2023/08/13 01:40:44;;;;;;;281.33;163.52;;;;;;;13.10;100.00;100283.25;5087843;28;20245;-88
2023/08/13 01:43:10;;;;;;;254.20;151.95;;;;;;;13.05;100.00;100274.13;5075005;28;20058;-85
2023/08/13 01:45:37;;;;;;;250.23;149.60;;;;;;;12.99;100.00;100275.75;5089523;28;20028;-88
2023/08/13 01:48:03;;;;;;;252.35;151.55;;;;;;;12.96;100.00;100268.88;5074901;28;20046;-85
2023/08/13 01:50:31;;;;;;;277.00;162.02;;;;;;;13.13;100.00;100288.25;5073607;28;20032;-85
2023/08/13 01:52:56;;;;;;;247.15;148.05;;;;;;;13.19;100.00;100283.91;5105310;28;20049;-85
2023/08/13 01:55:23;;;;;;;236.18;142.10;;;;;;;13.15;100.00;100261.03;5088620;28;20095;-86
2023/08/13 01:57:48;;;;;;;279.50;162.23;;;;;;;13.17;100.00;100262.50;5108523;28;20131;-88
2023/08/13 02:00:17;;;;;;;278.58;164.38;;;;;;;13.38;100.00;100279.59;5089743;28;20097;-85
2023/08/13 02:02:43;;;;;;;290.45;167.10;;;;;;;13.42;100.00;100280.84;5070204;28;20051;-85
2023/08/13 02:05:08;;;;;;;285.15;164.88;;;;;;;13.40;100.00;100280.22;5091015;28;20038;-86
2023/08/13 02:07:35;;;;;;;278.52;161.27;;;;;;;13.43;100.00;100276.28;5091337;28;20040;-85
2023/08/13 02:10:00;;;;;;;279.95;162.02;;;;;;;13.36;100.00;100268.16;5107930;28;20120;-86
2023/08/13 02:12:26;;;;;;;280.73;162.27;;;;;;;13.38;100.00;100280.41;5090197;28;20082;-85
2023/08/13 02:14:52;;;;;;;264.75;153.77;;;;;;;13.37;100.00;100275.25;5090886;28;20039;-87
2023/08/13 02:17:17;;;;;;;281.90;162.95;;;;;;;13.32;100.00;100275.03;5089985;28;20130;-86
2023/08/13 02:19:43;;;;;;;266.48;154.90;;;;;;;13.19;100.00;100255.03;5074143;28;20036;-85
2023/08/13 02:22:09;;;;;;;280.75;162.18;;;;;;;13.31;100.00;100274.19;5073391;28;20036;-86
2023/08/13 02:24:34;;;;;;;283.73;163.98;;;;;;;13.22;100.00;100255.66;5072905;28;20035;-86
2023/08/13 02:27:02;;;;;;;288.33;166.15;;;;;;;13.27;100.00;100261.31;5075414;28;20226;-88
2023/08/13 02:29:28;;;;;;;282.95;163.32;;;;;;;13.20;100.00;100245.06;5061130;28;20416;-85
2023/08/13 02:31:53;;;;;;;254.70;150.35;;;;;;;13.26;100.00;100260.47;5074160;28;20032;-88
2023/08/13 02:34:19;;;;;;;264.73;154.30;;;;;;;13.16;100.00;100249.22;5076570;28;20479;-86
2023/08/13 02:36:45;;;;;;;276.85;160.38;;;;;;;13.19;100.00;100260.44;5074580;28;20032;-86
2023/08/13 02:39:11;;;;;;;246.25;147.00;;;;;;;13.12;100.00;100256.03;5077520;28;20036;-86
2023/08/13 02:41:37;;;;;;;262.77;155.20;;;;;;;13.15;100.00;100256.50;5076391;28;20025;-86
2023/08/13 02:44:03;;;;;;;271.20;158.05;;;;;;;13.04;100.00;100240.88;5058818;28;20524;-86
2023/08/13 02:46:33;;;;;;;267.40;154.95;;;;;;;13.05;100.00;100247.97;5057996;28;20054;-88
2023/08/13 02:48:59;;;;;;;261.55;153.20;;;;;;;13.01;100.00;100249.38;5061009;28;20043;-86
2023/08/13 02:51:25;;;;;;;279.08;162.18;;;;;;;13.00;100.00;100249.59;5060684;28;20039;-87
2023/08/13 02:53:54;;;;;;;282.63;164.05;;;;;;;13.02;100.00;100252.91;5060375;28;20474;-86
2023/08/13 02:56:20;;;;;;;281.23;163.13;;;;;;;12.79;100.00;100220.91;5073849;28;20036;-86
2023/08/13 02:58:46;;;;;;;282.05;163.55;;;;;;;12.87;100.00;100220.72;5076839;28;20042;-88
2023/08/13 03:01:12;;;;;;;275.92;159.98;;;;;;;12.87;100.00;100235.03;5094103;28;20466;-87
2023/08/13 03:03:40;;;;;;;278.02;161.23;;;;;;;12.84;100.00;100240.84;5060436;28;20081;-86
2023/08/13 03:06:06;;;;;;;269.85;157.65;;;;;;;12.81;100.00;100246.66;5075098;28;20044;-86
2023/08/13 03:08:31;;;;;;;277.05;161.50;;;;;;;12.86;100.00;100243.31;5076826;28;20034;-86
2023/08/13 03:10:57;;;;;;;272.80;159.07;;;;;;;12.94;100.00;100248.56;5075528;28;20101;-86
2023/08/13 03:13:22;;;;;;;272.63;158.93;;;;;;;13.00;100.00;100249.59;5092779;28;20068;-86
2023/08/13 03:15:48;;;;;;;279.73;162.48;;;;;;;13.02;100.00;100240.28;5073955;28;20663;-86
2023/08/13 03:18:17;;;;;;;273.67;159.10;;;;;;;13.09;100.00;100245.66;5076761;28;20036;-86
2023/08/13 03:20:43;;;;;;;276.83;161.00;;;;;;;12.96;100.00;100231.09;5067210;28;20467;-86
2023/08/13 03:23:08;;;;;;;281.63;163.73;;;;;;;12.98;100.00;100249.78;5093009;28;20024;-85
2023/08/13 03:25:34;;;;;;;277.35;161.35;;;;;;;12.70;100.00;100226.50;5074438;28;20025;-86
2023/08/13 03:28:00;;;;;;;276.98;162.35;;;;;;;12.61;100.00;100238.47;5076041;28;20382;-88
2023/08/13 03:30:26;;;;;;;280.15;163.07;;;;;;;12.39;100.00;100232.38;5076913;28;20040;-85
2023/08/13 03:32:52;;;;;;;231.90;141.40;;;;;;;12.47;100.00;100244.88;5060593;28;20032;-88
2023/08/13 03:35:18;;;;;;;279.35;163.43;;;;;;;12.46;100.00;100237.78;5076701;28;20032;-86
2023/08/13 03:37:43;;;;;;;268.52;158.52;;;;;;;12.54;100.00;100240.31;5075989;28;20050;-86
2023/08/13 03:40:09;;;;;;;264.83;156.27;;;;;;;12.61;100.00;100235.78;5077029;28;20024;-85
2023/08/13 03:42:35;;;;;;;271.75;160.57;;;;;;;12.67;100.00;100240.34;5060030;28;20032;-88
2023/08/13 03:45:04;;;;;;;279.88;163.18;;;;;;;12.63;100.00;100214.84;5060453;28;20379;-86
2023/08/13 03:47:31;;;;;;;267.77;157.35;;;;;;;12.70;100.00;100234.59;5076938;28;20024;-86
2023/08/13 03:49:56;;;;;;;280.90;164.65;;;;;;;12.73;100.00;100239.56;5093580;28;20454;-86
2023/08/13 03:52:22;;;;;;;268.13;158.65;;;;;;;12.67;100.00;100245.75;5076557;28;20030;-86
2023/08/13 03:54:47;;;;;;;272.45;159.05;;;;;;;12.61;100.00;100243.88;5076184;28;20119;-85
2023/08/13 03:57:29;;;;;;;279.75;163.88;;;;;;;12.58;100.00;100249.66;5076385;28;20097;-86
2023/08/13 03:59:57;;;;;;;284.08;166.10;;;;;;;12.56;100.00;100249.03;5055328;28;20032;-88
2023/08/13 04:02:22;;;;;;;278.92;163.63;;;;;;;12.59;100.00;100255.91;5074010;28;20374;-85
2023/08/13 04:04:48;;;;;;;280.05;164.13;;;;;;;12.59;100.00;100254.03;5092770;28;20032;-86
2023/08/13 04:07:15;;;;;;;277.83;162.57;;;;;;;12.61;100.00;100246.56;5059980;28;20047;-86
2023/08/13 04:09:40;;;;;;;270.35;158.90;;;;;;;12.59;100.00;100237.84;5062368;28;20024;-85
2023/08/13 04:12:08;;;;;;;251.20;150.15;;;;;;;12.60;100.00;100241.38;5057396;28;20035;-85
2023/08/13 04:14:34;;;;;;;277.00;162.18;;;;;;;12.66;100.00;100249.50;5055282;28;20040;-88
2023/08/13 04:17:03;;;;;;;282.75;165.52;;;;;;;12.60;100.00;100242.22;5073748;28;20031;-86
2023/08/13 04:19:30;;;;;;;283.15;165.43;;;;;;;12.55;100.00;100239.28;5092346;28;20031;-85
2023/08/13 04:21:55;;;;;;;279.83;163.80;;;;;;;12.59;100.00;100248.63;5092110;28;20036;-86
2023/08/13 04:24:21;;;;;;;277.13;162.32;;;;;;;12.50;100.00;100236.38;5074208;28;20039;-86
2023/08/13 04:26:47;;;;;;;289.45;168.55;;;;;;;12.58;100.00;100246.97;5055858;28;20077;-87
2023/08/13 04:29:15;;;;;;;283.40;165.48;;;;;;;12.57;100.00;100244.47;5057136;28;20039;-85
2023/08/13 04:31:40;;;;;;;287.52;168.02;;;;;;;12.60;100.00;100242.22;5071064;28;20031;-88
2023/08/13 04:34:06;;;;;;;281.60;165.27;;;;;;;12.60;100.00;100249.47;5074121;28;20029;-85
2023/08/13 04:36:36;;;;;;;276.65;161.80;;;;;;;12.58;100.00;100257.75;5074755;28;20032;-85
2023/08/13 04:39:02;;;;;;;280.88;164.70;;;;;;;12.52;100.00;100251.31;5071085;28;20056;-86
2023/08/13 04:41:28;;;;;;;288.30;173.10;;;;;;;12.37;100.00;100223.66;5067859;28;20435;-85
2023/08/13 04:43:54;;;;;;;277.42;162.50;;;;;;;12.52;100.00;100251.31;5072537;28;20474;-86
2023/08/13 04:46:19;;;;;;;283.67;165.73;;;;;;;12.25;100.00;100214.47;5070256;28;20035;-85
2023/08/13 04:48:46;;;;;;;279.13;163.52;;;;;;;12.47;100.00;100252.94;5057896;28;20126;-85
2023/08/13 04:51:15;;;;;;;279.77;164.40;;;;;;;12.30;100.00;100231.72;5050680;28;20032;-86
2023/08/13 04:53:42;;;;;;;287.17;168.43;;;;;;;12.07;100.00;100210.44;5072363;28;20039;-85
2023/08/13 04:56:10;;;;;;;285.88;167.90;;;;;;;12.16;100.00;100238.06;5092567;28;20081;-85
2023/08/13 04:58:36;;;;;;;285.90;167.80;;;;;;;12.20;100.00;100249.25;5059401;28;20486;-86
2023/08/13 05:01:02;;;;;;;283.98;166.80;;;;;;;12.05;100.00;100228.66;5092135;28;20031;-86
2023/08/13 05:03:28;;;;;;;274.38;162.95;;;;;;;11.99;100.00;100220.56;5058739;28;20036;-85
2023/08/13 05:05:54;;;;;;;276.23;163.52;;;;;;;12.07;100.00;100236.56;5059182;28;20043;-86
2023/08/13 05:08:23;;;;;;;282.70;166.57;;;;;;;12.08;100.00;100246.31;5075991;28;20066;-85
2023/08/13 05:10:49;;;;;;;281.58;165.85;;;;;;;11.97;100.00;100245.00;5074824;28;20098;-85
2023/08/13 05:13:17;;;;;;;288.70;170.18;;;;;;;11.87;100.00;100242.66;5092037;28;20123;-85
2023/08/13 05:15:43;;;;;;;286.20;168.82;;;;;;;11.69;100.00;100231.50;5092527;28;20035;-85
2023/08/13 05:18:09;;;;;;;284.77;168.25;;;;;;;11.66;100.00;100242.66;5075508;28;20039;-85
2023/08/13 05:20:36;;;;;;;286.73;168.98;;;;;;;11.58;100.00;100258.97;5074843;28;20039;-85
2023/08/13 05:23:04;;;;;;;263.90;157.98;;;;;;;11.58;100.00;100253.59;5090710;28;20542;-86
2023/08/13 05:25:30;;;;;;;270.98;162.52;;;;;;;11.44;100.00;100237.31;5073455;28;20040;-86
2023/08/13 05:27:56;;;;;;;273.20;162.48;;;;;;;11.56;100.00;100258.31;5070818;28;20090;-85
2023/08/13 05:30:22;;;;;;;287.30;170.10;;;;;;;11.53;100.00;100245.25;5088899;28;20443;-86
2023/08/13 05:32:48;;;;;;;282.63;167.27;;;;;;;11.60;100.00;100248.84;5054608;28;20114;-85
2023/08/13 05:35:14;;;;;;;280.85;167.25;;;;;;;11.70;100.00;100246.66;5072635;28;20035;-87
2023/08/13 05:37:40;;;;;;;284.15;169.13;;;;;;;11.76;100.00;100245.84;5073975;28;20481;-85
2023/08/13 05:40:08;;;;;;;289.55;171.98;;;;;;;11.86;100.00;100251.78;5074433;28;20032;-86
2023/08/13 05:42:34;;;;;;;291.63;173.10;;;;;;;11.74;100.00;100245.22;5073852;28;20140;-88
2023/08/13 05:45:00;;;;;;;291.45;173.23;;;;;;;11.73;100.00;100253.50;5071288;28;20028;-86
2023/08/13 05:47:27;;;;;;;293.40;174.27;;;;;;;11.69;100.00;100244.13;5055749;28;20386;-87
2023/08/13 05:49:52;;;;;;;294.77;174.75;;;;;;;11.81;100.00;100246.09;5070743;28;20039;-86
2023/08/13 05:52:20;;;;;;;290.02;172.32;;;;;;;12.07;100.00;100256.25;5058199;28;20032;-86
2023/08/13 05:54:49;;;;;;;287.48;170.20;;;;;;;12.25;100.00;100260.28;5054877;28;20141;-86
2023/08/13 05:57:14;;;;;;;293.52;173.30;;;;;;;12.36;100.00;100253.50;5070021;28;20071;-86
2023/08/13 05:59:43;;;;;;;299.35;176.35;;;;;;;12.39;100.00;100251.25;5053704;28;20193;-86
2023/08/13 06:02:10;;;;;;;297.13;174.35;;;;;;;12.38;100.00;100240.66;5090649;28;20028;-85
2023/08/13 06:04:36;;;;;;;300.85;176.25;;;;;;;12.52;100.00;100256.72;5093227;28;20032;-85
2023/08/13 06:07:03;;;;;;;302.30;176.05;;;;;;;12.52;100.00;100256.72;5077030;28;20032;-88
2023/08/13 06:09:30;;;;;;;301.00;174.98;;;;;;;12.55;100.00;100258.16;5055418;28;20040;-85
2023/08/13 06:11:55;;;;;;;297.58;173.57;;;;;;;12.62;100.00;100252.78;5066729;28;20131;-85
2023/08/13 06:14:21;;;;;;;273.20;161.23;;;;;;;12.53;100.00;100233.25;5074091;28;20123;-85
2023/08/13 06:16:47;;;;;;;257.98;153.98;;;;;;;12.66;100.00;100256.75;5057436;28;20044;-86
2023/08/13 06:19:13;;;;;;;284.30;166.35;;;;;;;12.70;100.00;100260.69;5077257;28;20027;-85
2023/08/13 06:21:39;;;;;;;273.63;160.85;;;;;;;12.71;100.00;100257.81;5094223;28;20065;-85
2023/08/13 06:24:05;;;;;;;276.58;161.63;;;;;;;12.49;100.00;100222.06;5089677;28;20032;-85
2023/08/13 06:26:32;;;;;;;283.00;164.88;;;;;;;12.71;100.00;100257.00;5059841;28;20032;-85
2023/08/13 06:28:57;;;;;;;278.27;162.32;;;;;;;12.84;100.00;100270.53;5076583;28;20360;-85
2023/08/13 06:31:27;;;;;;;264.88;156.63;;;;;;;12.98;100.00;100266.00;5074489;28;20028;-85
2023/08/13 06:33:52;;;;;;;269.63;158.43;;;;;;;13.03;100.00;100260.00;5058733;28;20059;-85
2023/08/13 06:36:18;;;;;;;275.40;160.73;;;;;;;13.12;100.00;100275.78;5075405;28;20501;-85
2023/08/13 06:38:44;;;;;;;279.02;162.63;;;;;;;13.13;100.00;100266.66;5092647;28;20057;-86
2023/08/13 06:41:09;;;;;;;300.73;173.27;;;;;;;13.03;100.00;100250.03;5075483;28;20074;-85
2023/08/13 06:43:39;;;;;;;294.13;170.10;;;;;;;13.05;100.00;100247.97;5057837;28;20073;-85
2023/08/13 06:46:05;;;;;;;287.60;167.35;;;;;;;13.18;100.00;100261.47;5060303;28;20031;-88
2023/08/13 06:48:34;;;;;;;276.80;160.65;;;;;;;13.39;100.00;100287.50;5074505;28;20032;-87
2023/08/13 06:51:00;;;;;;;283.45;165.00;;;;;;;13.45;100.00;100285.03;5060508;28;21883;-85
2023/08/13 06:53:26;;;;;;;297.23;170.35;;;;;;;13.35;100.00;100255.72;5062106;28;20031;-85
2023/08/13 06:55:52;;;;;;;260.17;153.18;;;;;;;13.44;100.00;100261.72;5095316;28;20044;-86
2023/08/13 06:58:20;;;;;;;244.43;145.77;;;;;;;13.34;100.00;100235.16;5082054;28;20039;-86
2023/08/13 07:00:46;;;;;;;256.48;151.02;;;;;;;13.67;100.00;100272.97;5059981;28;20135;-85
2023/08/13 07:03:12;;;;;;;252.70;148.98;;;;;;;13.64;100.00;100263.41;5074968;28;20039;-86
2023/08/13 07:05:42;;;;;;;265.50;154.70;;;;;;;13.43;100.00;100215.00;5077986;28;20382;-85
2023/08/13 07:08:09;;;;;;;250.85;148.35;;;;;;;13.83;100.00;100267.13;5044759;28;20063;-85
2023/08/13 07:10:35;;;;;;;248.32;147.13;;;;;;;13.61;100.00;100239.50;5076810;28;20068;-85
2023/08/13 07:13:01;;;;;;;252.85;148.27;;;;;;;13.72;100.00;100245.31;5059535;28;20504;-85
2023/08/13 07:15:26;;;;;;;283.77;162.75;;;;;;;13.71;100.00;100238.28;5105598;28;20051;-85
2023/08/13 07:17:52;;;;;;;279.40;160.30;;;;;;;13.93;100.00;100261.31;5076482;28;20040;-86
2023/08/13 07:20:18;;;;;;;277.83;159.32;;;;;;;14.02;100.00;100254.63;5077659;28;20036;-84
2023/08/13 07:22:45;;;;;;;275.83;158.15;;;;;;;13.98;100.00;100228.25;5077490;28;20035;-85
2023/08/13 07:25:12;;;;;;;281.25;160.23;;;;;;;14.33;100.00;100277.44;5092454;28;20503;-86
2023/08/13 07:27:39;;;;;;;290.55;164.77;;;;;;;14.34;100.00;100270.97;5077221;28;20056;-85
2023/08/13 07:30:09;;;;;;;289.13;163.10;;;;;;;14.19;100.00;100254.19;5075282;28;20078;-86
2023/08/13 07:32:40;;;;;;;284.17;162.00;;;;;;;14.51;100.00;100279.47;5058386;28;20041;-86
2023/08/13 07:35:10;;;;;;;289.42;163.85;;;;;;;14.61;100.00;100265.53;5092913;28;20386;-86
2023/08/13 07:37:36;;;;;;;286.70;162.18;;;;;;;14.84;100.00;100284.78;5076071;28;20038;-84
2023/08/13 07:40:13;;;;;;;285.20;161.05;;;;;;;14.95;100.00;100280.56;5091772;28;20043;-88
2023/08/13 07:42:40;;;;;;;292.58;163.38;;;;;;;15.02;100.00;100278.66;5078444;28;20031;-87
2023/08/13 07:45:07;;;;;;;286.92;161.02;;;;;;;15.11;100.00;100276.50;5069999;28;20033;-87
2023/08/13 07:47:35;;;;;;;287.35;160.98;;;;;;;15.14;100.00;100266.09;5073279;28;20390;-87
2023/08/13 07:50:04;;;;;;;287.80;161.05;;;;;;;15.24;100.00;100260.22;5056700;28;20036;-85
2023/08/13 07:52:34;;;;;;;293.63;163.55;;;;;;;15.42;100.00;100272.16;5053459;28;20386;-86
2023/08/13 07:55:00;;;;;;;292.67;162.57;;;;;;;15.67;100.00;100277.59;5091436;28;20558;-85
2023/08/13 07:57:31;;;;;;;296.70;163.73;;;;;;;15.91;100.00;100287.63;5095096;28;20032;-86
2023/08/13 07:59:57;;;;;;;307.27;167.30;;;;;;;15.98;100.00;100271.28;5083156;28;20035;-85
2023/08/13 08:02:23;;;;;;;302.63;165.40;;;;;;;16.25;100.00;100275.41;5074602;28;20032;-86
2023/08/13 08:04:49;;;;;;;306.15;164.68;;;;;;;16.46;100.00;100263.28;5058931;28;20478;-83
2023/08/13 08:07:21;;;;;;;306.13;166.57;;;;;;;16.55;100.00;100273.84;5091061;28;20020;-84
2023/08/13 08:09:47;;;;;;;300.77;163.53;;;;;;;16.68;100.00;100288.06;5057764;28;20027;-84
2023/08/13 08:12:13;;;;;;;316.85;168.25;;;;;;;16.66;100.00;100282.03;5090936;28;20032;-83
2023/08/13 08:14:38;;;;;;;306.73;165.15;;;;;;;16.67;100.00;100289.13;5073960;28;20024;-84
2023/08/13 08:17:07;;;;;;;300.40;162.52;;;;;;;16.67;100.00;100281.00;5091081;28;20446;-84
2023/08/13 08:19:33;;;;;;;301.73;163.05;;;;;;;16.81;100.00;100272.72;5058236;28;20036;-84
2023/08/13 08:21:59;;;;;;;301.42;161.80;;;;;;;16.95;100.00;100266.03;5075584;28;20026;-84
2023/08/13 08:24:25;;;;;;;294.02;159.18;;;;;;;17.03;100.00;100251.31;5075701;28;20081;-84
2023/08/13 08:26:51;;;;;;;300.98;163.05;;;;;;;17.02;100.00;100252.38;5076146;28;20028;-83
2023/08/13 08:29:17;;;;;;;291.92;158.93;;;;;;;17.00;100.00;100224.63;5076218;28;20107;-83
2023/08/13 08:31:55;;;;;;;294.90;158.52;;;;;;;17.09;100.00;100239.50;5073546;28;20426;-84
2023/08/13 08:34:21;;;;;;;302.48;162.30;;;;;;;17.28;100.00;100251.13;5057543;28;20036;-84
2023/08/13 08:36:47;;;;;;;278.55;151.73;;;;;;;17.34;100.00;100261.09;5074187;28;20027;-85
2023/08/13 08:39:13;;;;;;;287.85;155.43;;;;;;;17.40;100.00;100265.59;5057986;28;20035;-84
2023/08/13 08:41:40;;;;;;;301.05;159.02;;;;;;;17.58;100.00;100289.16;5057939;28;20474;-84
2023/08/13 08:44:07;;;;;;;300.77;160.65;;;;;;;17.43;100.00;100243.38;5041400;28;20044;-84
2023/08/13 08:46:33;;;;;;;302.58;160.15;;;;;;;17.87;100.00;100279.28;5074333;28;20471;-84
2023/08/13 08:48:59;;;;;;;298.98;160.07;;;;;;;17.71;100.00;100258.22;5075086;28;20028;-84
2023/08/13 08:51:25;;;;;;;298.88;160.18;;;;;;;17.67;100.00;100233.34;5058939;28;20024;-84
2023/08/13 08:53:51;;;;;;;302.02;160.38;;;;;;;18.88;100.00;100288.06;5075436;28;20489;-83
2023/08/13 08:56:17;;;;;;;304.60;161.05;;;;;;;21.41;100.00;100270.50;5058591;28;20025;-84
2023/08/13 08:58:42;;;;;;;305.23;161.82;;;;;;;21.60;100.00;100283.81;5075046;28;20028;-84
2023/08/13 09:01:08;;;;;;;300.15;157.95;;;;;;;20.87;100.00;100256.78;5075451;28;20165;-84
2023/08/13 09:03:34;;;;;;;295.50;156.73;;;;;;;20.41;100.00;100261.69;5075300;28;20680;-83
2023/08/13 09:06:00;;;;;;;295.88;156.48;;;;;;;19.20;100.00;100265.75;5074098;28;20064;-85
2023/08/13 09:08:26;;;;;;;294.92;156.63;;;;;;;17.95;100.00;100257.19;5072638;28;20072;-83
2023/08/13 09:10:52;;;;;;;294.55;156.73;;;;;;;17.13;100.00;100287.72;5058609;28;20130;-83
2023/08/13 09:13:17;;;;;;;293.63;156.63;;;;;;;16.11;100.00;100279.31;5075106;28;20032;-84
2023/08/13 09:15:50;;;;;;;273.95;149.52;;;;;;;15.63;100.00;100284.50;5070633;28;20043;-75
2023/08/13 09:18:16;;;;;;;285.07;154.90;;;;;;;15.53;100.00;100285.00;5038888;28;20098;-75
2023/08/13 09:20:44;;;;;;;273.13;150.88;;;;;;;15.77;100.00;100286.06;5055874;28;20281;-75
2023/08/13 09:23:09;;;;;;;291.02;158.05;;;;;;;16.01;100.00;100295.28;5073032;28;20073;-75
2023/08/13 09:25:35;;;;;;;280.80;153.85;;;;;;;16.54;100.00;100272.16;5073530;28;20032;-75
2023/08/13 09:28:02;;;;;;;304.42;164.45;;;;;;;17.43;100.00;100284.16;5073415;28;20478;-76
2023/08/13 09:30:31;;;;;;;275.55;151.20;;;;;;;19.07;100.00;100290.59;5070053;28;20035;-75
2023/08/13 09:32:59;;;;;;;291.42;156.15;;;;;;;22.13;100.00;100282.84;5073725;28;20036;-76
2023/08/13 09:35:30;;;;;;;300.40;160.25;;;;;;;23.74;94.44;100291.34;5059607;28;20036;-75
2023/08/13 09:37:55;;;;;;;301.70;159.45;;;;;;;23.72;91.73;100290.84;5062096;28;20071;-75
2023/08/13 09:40:21;;;;;;;297.42;158.13;;;;;;;22.17;95.30;100281.22;5075898;28;20135;-75
2023/08/13 09:42:56;;;;;;;299.02;157.02;;;;;;;20.52;100.00;100279.03;5074714;28;20044;-75
2023/08/13 09:45:23;;;;;;;290.38;154.60;;;;;;;19.65;100.00;100280.44;5058513;28;20036;-75
2023/08/13 09:47:49;;;;;;;287.65;153.68;;;;;;;19.27;100.00;100290.16;5070865;28;20127;-75
2023/08/13 09:50:17;;;;;;;290.25;155.05;;;;;;;19.00;100.00;100284.44;5073224;28;20525;-75
2023/08/13 09:52:44;;;;;;;287.50;153.55;;;;;;;17.93;100.00;100282.97;5077374;28;20036;-75
2023/08/13 09:55:17;;;;;;;290.20;155.27;;;;;;;17.13;100.00;100293.16;5077028;28;20042;-75
2023/08/13 09:57:43;;;;;;;297.75;156.40;;;;;;;16.91;100.00;100286.59;5079113;28;20530;-75
2023/08/13 10:00:11;;;;;;;280.23;152.68;;;;;;;17.11;100.00;100287.13;5059378;28;20035;-75
2023/08/13 10:02:38;;;;;;;292.70;156.38;;;;;;;17.57;100.00;100287.47;5060501;28;20036;-75
2023/08/13 10:05:05;;;;;;;308.33;163.15;;;;;;;19.33;100.00;100289.16;5078877;28;20474;-76
2023/08/13 10:07:31;;;;;;;306.10;162.13;;;;;;;22.46;100.00;100290.97;5058703;28;20036;-75
2023/08/13 10:09:57;;;;;;;293.85;156.18;;;;;;;24.22;92.20;100300.94;5069975;28;20028;-76
2023/08/13 10:12:24;;;;;;;303.92;160.05;;;;;;;26.15;81.60;100286.38;5075425;28;20028;-76
2023/08/13 10:14:49;;;;;;;293.55;154.90;;;;;;;26.96;77.87;100294.78;5073804;28;20032;-76
2023/08/13 10:17:23;;;;;;;287.92;152.68;;;;;;;25.20;83.57;100299.50;5076760;28;20047;-76
2023/08/13 10:19:50;;;;;;;280.33;150.43;;;;;;;23.85;84.50;100279.28;5061249;28;20478;-75
2023/08/13 10:22:35;;;;;;;293.13;155.63;;;;;;;25.13;83.25;100287.13;5073612;28;20424;-76
2023/08/13 10:25:00;;;;;;;284.13;151.98;;;;;;;26.70;73.17;100286.03;5056578;28;20024;-75
2023/08/13 10:27:27;;;;;;;292.17;154.30;;;;;;;24.94;81.22;100289.72;5079114;28;20454;-75
2023/08/13 10:30:10;;;;;;;289.90;153.10;;;;;;;23.72;85.58;100272.44;5074209;28;20070;-75
2023/08/13 10:33:04;;;;;;;291.13;154.40;;;;;;;21.74;100.00;100282.28;5075607;28;20063;-74
2023/08/13 10:35:34;;;;;;;286.20;151.85;;;;;;;19.95;100.00;100286.44;5080234;28;20085;-74
2023/08/13 10:38:02;;;;;;;290.52;153.95;;;;;;;18.34;100.00;100298.34;5066759;28;20073;-75
2023/08/13 10:40:28;;;;;;;292.90;153.82;;;;;;;16.89;100.00;100294.94;5058936;28;20063;-75
2023/08/13 10:42:55;;;;;;;282.75;151.45;;;;;;;16.05;100.00;100301.91;5093841;28;20043;-75
2023/08/13 10:45:24;;;;;;;267.27;146.38;;;;;;;15.98;100.00;100274.84;5059347;28;20032;-76
2023/08/13 10:47:54;;;;;;;281.70;151.98;;;;;;;16.92;100.00;100286.34;5056941;28;20036;-75